sensor_id;sensor_type;location;lat;lon;timestamp;P1;durP1;ratioP1;P2;durP2;ratioP2
29006;SDS011;16104;48.642;9.008;2023-08-30T01:02:05;7.75;;;6.95;;
29006;SDS011;16104;48.642;9.008;2023-08-30T01:07:00;9.13;;;8.27;;
29006;SDS011;16104;48.642;9.008;2023-08-30T02:02:49;9.35;;;8.02;;
29006;SDS011;16104;48.642;9.008;2023-08-30T02:12:58;8.55;;;7.75;;
29006;SDS011;16104;48.642;9.008;2023-08-30T03:04:17;9.52;;;7.28;;
29006;SDS011;16104;48.642;9.008;2023-08-30T03:09:13;8.02;;;7.32;;
29006;SDS011;16104;48.642;9.008;2023-08-30T03:14:09;6.43;;;5.38;;
29006;SDS011;16104;48.642;9.008;2023-08-30T03:19:04;6.88;;;6.20;;
29006;SDS011;16104;48.642;9.008;2023-08-30T03:24:00;8.23;;;6.05;;
29006;SDS011;16104;48.642;9.008;2023-08-30T03:28:56;7.93;;;7.13;;
29006;SDS011;16104;48.642;9.008;2023-08-30T03:33:51;7.30;;;6.60;;
29006;SDS011;16104;48.642;9.008;2023-08-30T03:38:47;7.13;;;6.00;;
29006;SDS011;16104;48.642;9.008;2023-08-30T03:43:42;8.32;;;6.05;;
29006;SDS011;16104;48.642;9.008;2023-08-30T03:48:38;7.72;;;7.03;;
29006;SDS011;16104;48.642;9.008;2023-08-30T03:53:34;7.70;;;7.00;;
29006;SDS011;16104;48.642;9.008;2023-08-30T03:58:29;7.95;;;7.15;;
29006;SDS011;16104;48.642;9.008;2023-08-30T04:03:25;7.35;;;6.65;;
29006;SDS011;16104;48.642;9.008;2023-08-30T04:08:21;8.13;;;7.43;;
29006;SDS011;16104;48.642;9.008;2023-08-30T04:13:16;8.13;;;7.32;;
29006;SDS011;16104;48.642;9.008;2023-08-30T04:18:11;10.45;;;7.10;;
29006;SDS011;16104;48.642;9.008;2023-08-30T04:23:07;7.53;;;6.82;;
29006;SDS011;16104;48.642;9.008;2023-08-30T04:28:03;8.90;;;8.00;;
29006;SDS011;16104;48.642;9.008;2023-08-30T04:32:58;6.80;;;6.20;;
29006;SDS011;16104;48.642;9.008;2023-08-30T04:37:58;8.23;;;7.35;;
29006;SDS011;16104;48.642;9.008;2023-08-30T04:42:55;8.05;;;7.32;;
29006;SDS011;16104;48.642;9.008;2023-08-30T04:47:50;8.20;;;7.45;;
29006;SDS011;16104;48.642;9.008;2023-08-30T04:52:46;6.95;;;6.32;;
29006;SDS011;16104;48.642;9.008;2023-08-30T04:57:41;9.18;;;8.27;;
29006;SDS011;16104;48.642;9.008;2023-08-30T05:02:39;8.77;;;7.97;;
29006;SDS011;16104;48.642;9.008;2023-08-30T05:07:38;8.43;;;6.78;;
29006;SDS011;16104;48.642;9.008;2023-08-30T05:12:34;7.53;;;6.82;;
29006;SDS011;16104;48.642;9.008;2023-08-30T05:17:30;7.20;;;6.60;;
29006;SDS011;16104;48.642;9.008;2023-08-30T05:22:26;6.28;;;5.72;;
29006;SDS011;16104;48.642;9.008;2023-08-30T05:27:21;6.78;;;6.18;;
29006;SDS011;16104;48.642;9.008;2023-08-30T05:32:17;8.40;;;7.60;;
29006;SDS011;16104;48.642;9.008;2023-08-30T05:37:12;9.02;;;7.35;;
29006;SDS011;16104;48.642;9.008;2023-08-30T05:42:08;8.05;;;6.45;;
29006;SDS011;16104;48.642;9.008;2023-08-30T05:47:03;8.50;;;7.25;;
29006;SDS011;16104;48.642;9.008;2023-08-30T05:51:59;9.40;;;6.85;;
29006;SDS011;16104;48.642;9.008;2023-08-30T05:56:55;7.63;;;6.90;;
29006;SDS011;16104;48.642;9.008;2023-08-30T06:01:50;7.03;;;6.32;;
29006;SDS011;16104;48.642;9.008;2023-08-30T06:06:46;8.93;;;7.45;;
29006;SDS011;16104;48.642;9.008;2023-08-30T06:11:41;7.97;;;7.15;;
29006;SDS011;16104;48.642;9.008;2023-08-30T06:16:37;9.00;;;7.82;;
29006;SDS011;16104;48.642;9.008;2023-08-30T06:21:32;10.38;;;8.10;;
29006;SDS011;16104;48.642;9.008;2023-08-30T06:26:28;7.47;;;6.78;;
29006;SDS011;16104;48.642;9.008;2023-08-30T06:31:23;7.80;;;7.10;;
29006;SDS011;16104;48.642;9.008;2023-08-30T06:36:19;8.10;;;7.30;;
29006;SDS011;16104;48.642;9.008;2023-08-30T06:41:17;7.50;;;6.78;;
29006;SDS011;16104;48.642;9.008;2023-08-30T06:46:13;7.00;;;6.40;;
29006;SDS011;16104;48.642;9.008;2023-08-30T06:51:08;7.05;;;6.38;;
29006;SDS011;16104;48.642;9.008;2023-08-30T06:56:05;6.57;;;5.97;;
29006;SDS011;16104;48.642;9.008;2023-08-30T07:01:01;10.02;;;6.90;;
29006;SDS011;16104;48.642;9.008;2023-08-30T07:05:58;7.00;;;5.85;;
29006;SDS011;16104;48.642;9.008;2023-08-30T07:10:53;5.63;;;5.10;;
29006;SDS011;16104;48.642;9.008;2023-08-30T07:15:49;7.15;;;5.90;;
29006;SDS011;16104;48.642;9.008;2023-08-30T07:20:44;7.03;;;6.10;;
29006;SDS011;16104;48.642;9.008;2023-08-30T07:25:40;6.47;;;5.28;;
29006;SDS011;16104;48.642;9.008;2023-08-30T07:30:35;6.32;;;5.72;;
29006;SDS011;16104;48.642;9.008;2023-08-30T07:35:31;6.85;;;6.25;;
29006;SDS011;16104;48.642;9.008;2023-08-30T07:40:27;7.00;;;6.38;;
29006;SDS011;16104;48.642;9.008;2023-08-30T07:45:24;7.93;;;5.63;;
29006;SDS011;16104;48.642;9.008;2023-08-30T07:50:19;7.88;;;6.13;;
29006;SDS011;16104;48.642;9.008;2023-08-30T07:55:15;8.38;;;5.82;;
29006;SDS011;16104;48.642;9.008;2023-08-30T08:00:10;6.00;;;5.50;;
29006;SDS011;16104;48.642;9.008;2023-08-30T08:05:06;7.25;;;6.55;;
29006;SDS011;16104;48.642;9.008;2023-08-30T08:10:03;7.60;;;5.97;;
29006;SDS011;16104;48.642;9.008;2023-08-30T08:14:58;9.18;;;7.18;;
29006;SDS011;16104;48.642;9.008;2023-08-30T08:19:54;7.13;;;6.47;;
29006;SDS011;16104;48.642;9.008;2023-08-30T08:24:49;7.32;;;6.30;;
29006;SDS011;16104;48.642;9.008;2023-08-30T08:29:46;7.65;;;5.15;;
29006;SDS011;16104;48.642;9.008;2023-08-30T08:34:42;7.50;;;6.38;;
29006;SDS011;16104;48.642;9.008;2023-08-30T08:39:37;6.90;;;6.20;;
29006;SDS011;16104;48.642;9.008;2023-08-30T08:44:33;7.65;;;6.93;;
29006;SDS011;16104;48.642;9.008;2023-08-30T08:49:29;7.38;;;5.88;;
29006;SDS011;16104;48.642;9.008;2023-08-30T08:54:26;6.72;;;6.13;;
29006;SDS011;16104;48.642;9.008;2023-08-30T08:59:22;5.70;;;5.20;;
29006;SDS011;16104;48.642;9.008;2023-08-30T09:04:18;5.70;;;5.20;;
29006;SDS011;16104;48.642;9.008;2023-08-30T09:09:15;6.95;;;5.65;;
29006;SDS011;16104;48.642;9.008;2023-08-30T09:14:10;5.28;;;4.78;;
29006;SDS011;16104;48.642;9.008;2023-08-30T09:19:06;5.28;;;4.78;;
29006;SDS011;16104;48.642;9.008;2023-08-30T09:24:06;5.35;;;4.85;;
29006;SDS011;16104;48.642;9.008;2023-08-30T09:29:02;7.35;;;4.68;;
29006;SDS011;16104;48.642;9.008;2023-08-30T09:33:59;4.07;;;3.72;;
29006;SDS011;16104;48.642;9.008;2023-08-30T09:38:56;5.38;;;4.47;;
29006;SDS011;16104;48.642;9.008;2023-08-30T09:43:53;4.38;;;3.63;;
29006;SDS011;16104;48.642;9.008;2023-08-30T09:48:49;3.67;;;3.38;;
29006;SDS011;16104;48.642;9.008;2023-08-30T09:53:45;3.70;;;3.22;;
29006;SDS011;16104;48.642;9.008;2023-08-30T09:58:44;3.75;;;3.10;;
29006;SDS011;16104;48.642;9.008;2023-08-30T10:03:40;3.05;;;2.75;;
29006;SDS011;16104;48.642;9.008;2023-08-30T10:08:37;3.00;;;2.80;;
29006;SDS011;16104;48.642;9.008;2023-08-30T10:13:35;4.18;;;2.88;;
29006;SDS011;16104;48.642;9.008;2023-08-30T10:18:33;3.20;;;2.60;;
29006;SDS011;16104;48.642;9.008;2023-08-30T10:23:31;3.40;;;3.10;;
29006;SDS011;16104;48.642;9.008;2023-08-30T10:28:27;3.17;;;2.88;;
29006;SDS011;16104;48.642;9.008;2023-08-30T10:33:23;3.17;;;2.80;;
29006;SDS011;16104;48.642;9.008;2023-08-30T10:38:24;2.47;;;2.28;;
29006;SDS011;16104;48.642;9.008;2023-08-30T10:43:29;3.58;;;3.00;;
29006;SDS011;16104;48.642;9.008;2023-08-30T10:48:38;3.53;;;3.10;;
29006;SDS011;16104;48.642;9.008;2023-08-30T10:53:34;3.17;;;2.70;;
29006;SDS011;16104;48.642;9.008;2023-08-30T10:58:38;3.72;;;3.30;;
29006;SDS011;16104;48.642;9.008;2023-08-30T11:03:39;3.15;;;2.83;;
29006;SDS011;16104;48.642;9.008;2023-08-30T11:08:36;4.07;;;2.50;;
29006;SDS011;16104;48.642;9.008;2023-08-30T11:13:32;2.60;;;2.35;;
29006;SDS011;16104;48.642;9.008;2023-08-30T11:18:28;3.22;;;2.45;;
29006;SDS011;16104;48.642;9.008;2023-08-30T11:23:23;3.63;;;2.58;;
29006;SDS011;16104;48.642;9.008;2023-08-30T11:28:23;2.80;;;2.50;;
29006;SDS011;16104;48.642;9.008;2023-08-30T11:33:19;2.78;;;2.55;;
29006;SDS011;16104;48.642;9.008;2023-08-30T11:38:15;2.78;;;2.58;;
29006;SDS011;16104;48.642;9.008;2023-08-30T11:43:12;2.33;;;1.70;;
29006;SDS011;16104;48.642;9.008;2023-08-30T11:48:10;1.60;;;1.40;;
29006;SDS011;16104;48.642;9.008;2023-08-30T11:53:06;1.35;;;1.15;;
29006;SDS011;16104;48.642;9.008;2023-08-30T11:58:02;2.78;;;1.65;;
29006;SDS011;16104;48.642;9.008;2023-08-30T12:02:57;2.05;;;1.35;;
29006;SDS011;16104;48.642;9.008;2023-08-30T12:07:53;2.22;;;2.00;;
29006;SDS011;16104;48.642;9.008;2023-08-30T12:12:48;2.00;;;1.90;;
29006;SDS011;16104;48.642;9.008;2023-08-30T12:17:44;2.20;;;2.00;;
29006;SDS011;16104;48.642;9.008;2023-08-30T12:22:40;2.28;;;2.15;;
29006;SDS011;16104;48.642;9.008;2023-08-30T12:27:35;2.50;;;2.30;;
29006;SDS011;16104;48.642;9.008;2023-08-30T12:32:31;2.60;;;2.40;;
29006;SDS011;16104;48.642;9.008;2023-08-30T12:37:26;2.50;;;2.30;;
29006;SDS011;16104;48.642;9.008;2023-08-30T12:42:22;3.05;;;1.83;;
29006;SDS011;16104;48.642;9.008;2023-08-30T12:47:17;2.55;;;2.35;;
29006;SDS011;16104;48.642;9.008;2023-08-30T12:52:13;2.40;;;2.20;;
29006;SDS011;16104;48.642;9.008;2023-08-30T12:57:08;2.40;;;2.20;;
29006;SDS011;16104;48.642;9.008;2023-08-30T13:02:04;3.17;;;2.40;;
29006;SDS011;16104;48.642;9.008;2023-08-30T13:07:00;2.60;;;2.40;;
29006;SDS011;16104;48.642;9.008;2023-08-30T13:11:56;4.20;;;2.55;;
29006;SDS011;16104;48.642;9.008;2023-08-30T13:16:51;3.55;;;2.30;;
29006;SDS011;16104;48.642;9.008;2023-08-30T13:21:47;2.40;;;2.17;;
29006;SDS011;16104;48.642;9.008;2023-08-30T13:26:43;3.00;;;2.42;;
29006;SDS011;16104;48.642;9.008;2023-08-30T13:31:38;2.78;;;2.58;;
29006;SDS011;16104;48.642;9.008;2023-08-30T13:36:34;2.50;;;2.30;;
29006;SDS011;16104;48.642;9.008;2023-08-30T13:41:31;2.22;;;2.13;;
29006;SDS011;16104;48.642;9.008;2023-08-30T13:46:27;2.50;;;2.30;;
29006;SDS011;16104;48.642;9.008;2023-08-30T13:51:23;2.22;;;1.98;;
29006;SDS011;16104;48.642;9.008;2023-08-30T13:56:19;2.55;;;1.80;;
29006;SDS011;16104;48.642;9.008;2023-08-30T14:01:15;1.88;;;1.67;;
29006;SDS011;16104;48.642;9.008;2023-08-30T14:06:11;1.77;;;1.67;;
29006;SDS011;16104;48.642;9.008;2023-08-30T14:11:07;2.25;;;1.55;;
29006;SDS011;16104;48.642;9.008;2023-08-30T14:16:02;1.55;;;1.45;;
29006;SDS011;16104;48.642;9.008;2023-08-30T14:21:01;3.10;;;1.40;;
29006;SDS011;16104;48.642;9.008;2023-08-30T14:25:57;1.70;;;1.50;;
29006;SDS011;16104;48.642;9.008;2023-08-30T14:30:54;1.60;;;1.50;;
29006;SDS011;16104;48.642;9.008;2023-08-30T14:35:50;1.70;;;1.58;;
29006;SDS011;16104;48.642;9.008;2023-08-30T14:40:58;1.83;;;1.70;;
29006;SDS011;16104;48.642;9.008;2023-08-30T14:50:57;1.67;;;1.58;;
29006;SDS011;16104;48.642;9.008;2023-08-30T14:55:53;2.38;;;1.80;;
29006;SDS011;16104;48.642;9.008;2023-08-30T15:00:50;4.63;;;1.88;;
29006;SDS011;16104;48.642;9.008;2023-08-30T15:05:52;1.88;;;1.77;;
29006;SDS011;16104;48.642;9.008;2023-08-30T15:10:49;1.60;;;1.50;;
29006;SDS011;16104;48.642;9.008;2023-08-30T15:15:46;2.17;;;1.77;;
29006;SDS011;16104;48.642;9.008;2023-08-30T15:20:42;1.67;;;1.58;;
29006;SDS011;16104;48.642;9.008;2023-08-30T15:25:39;1.75;;;1.65;;
29006;SDS011;16104;48.642;9.008;2023-08-30T15:30:34;1.98;;;1.77;;
29006;SDS011;16104;48.642;9.008;2023-08-30T15:35:30;3.38;;;1.65;;
29006;SDS011;16104;48.642;9.008;2023-08-30T15:40:25;2.28;;;1.55;;
29006;SDS011;16104;48.642;9.008;2023-08-30T15:45:21;3.53;;;1.83;;
29006;SDS011;16104;48.642;9.008;2023-08-30T15:50:16;2.45;;;1.98;;
29006;SDS011;16104;48.642;9.008;2023-08-30T15:55:12;3.90;;;2.25;;
29006;SDS011;16104;48.642;9.008;2023-08-30T16:00:08;2.08;;;1.80;;
29006;SDS011;16104;48.642;9.008;2023-08-30T16:05:04;1.50;;;1.40;;
29006;SDS011;16104;48.642;9.008;2023-08-30T16:10:00;2.83;;;1.70;;
29006;SDS011;16104;48.642;9.008;2023-08-30T16:14:55;2.42;;;1.65;;
29006;SDS011;16104;48.642;9.008;2023-08-30T16:19:50;1.77;;;1.67;;
29006;SDS011;16104;48.642;9.008;2023-08-30T16:24:46;1.98;;;1.63;;
29006;SDS011;16104;48.642;9.008;2023-08-30T16:29:42;3.08;;;1.70;;
29006;SDS011;16104;48.642;9.008;2023-08-30T16:34:37;2.70;;;1.77;;
29006;SDS011;16104;48.642;9.008;2023-08-30T16:39:33;2.75;;;2.20;;
29006;SDS011;16104;48.642;9.008;2023-08-30T16:44:29;2.38;;;2.10;;
29006;SDS011;16104;48.642;9.008;2023-08-30T16:49:24;1.80;;;1.70;;
29006;SDS011;16104;48.642;9.008;2023-08-30T16:54:20;2.28;;;2.08;;
29006;SDS011;16104;48.642;9.008;2023-08-30T16:59:16;2.22;;;2.03;;
29006;SDS011;16104;48.642;9.008;2023-08-30T17:04:12;2.45;;;2.20;;
29006;SDS011;16104;48.642;9.008;2023-08-30T17:09:08;2.35;;;1.65;;
29006;SDS011;16104;48.642;9.008;2023-08-30T17:14:04;2.63;;;1.75;;
29006;SDS011;16104;48.642;9.008;2023-08-30T17:19:00;2.03;;;1.67;;
29006;SDS011;16104;48.642;9.008;2023-08-30T17:23:56;2.00;;;1.73;;
29006;SDS011;16104;48.642;9.008;2023-08-30T17:28:53;2.20;;;1.77;;
29006;SDS011;16104;48.642;9.008;2023-08-30T17:33:48;1.90;;;1.70;;
29006;SDS011;16104;48.642;9.008;2023-08-30T17:38:45;2.08;;;1.77;;
29006;SDS011;16104;48.642;9.008;2023-08-30T17:43:41;2.20;;;1.77;;
29006;SDS011;16104;48.642;9.008;2023-08-30T17:48:37;2.20;;;1.90;;
29006;SDS011;16104;48.642;9.008;2023-08-30T17:53:34;3.35;;;1.90;;
29006;SDS011;16104;48.642;9.008;2023-08-30T17:58:30;2.25;;;1.80;;
29006;SDS011;16104;48.642;9.008;2023-08-30T18:03:25;2.22;;;2.03;;
29006;SDS011;16104;48.642;9.008;2023-08-30T18:08:24;3.80;;;1.92;;
29006;SDS011;16104;48.642;9.008;2023-08-30T18:13:20;2.60;;;2.00;;
29006;SDS011;16104;48.642;9.008;2023-08-30T18:18:16;2.00;;;1.80;;
29006;SDS011;16104;48.642;9.008;2023-08-30T18:23:12;3.28;;;2.35;;
29006;SDS011;16104;48.642;9.008;2023-08-30T18:28:07;1.98;;;1.88;;
29006;SDS011;16104;48.642;9.008;2023-08-30T18:33:03;2.13;;;1.92;;
29006;SDS011;16104;48.642;9.008;2023-08-30T18:37:59;2.55;;;1.80;;
29006;SDS011;16104;48.642;9.008;2023-08-30T18:42:58;3.00;;;2.05;;
29006;SDS011;16104;48.642;9.008;2023-08-30T18:47:53;3.58;;;2.05;;
29006;SDS011;16104;48.642;9.008;2023-08-30T18:52:50;4.35;;;2.42;;
29006;SDS011;16104;48.642;9.008;2023-08-30T18:57:46;3.38;;;2.15;;
29006;SDS011;16104;48.642;9.008;2023-08-30T19:02:42;4.53;;;2.15;;
29006;SDS011;16104;48.642;9.008;2023-08-30T19:07:38;2.40;;;2.20;;
29006;SDS011;16104;48.642;9.008;2023-08-30T19:12:33;3.78;;;2.55;;
29006;SDS011;16104;48.642;9.008;2023-08-30T19:17:29;4.97;;;2.38;;
29006;SDS011;16104;48.642;9.008;2023-08-30T19:22:24;4.03;;;2.75;;
29006;SDS011;16104;48.642;9.008;2023-08-30T19:27:20;2.70;;;2.50;;
29006;SDS011;16104;48.642;9.008;2023-08-30T19:32:16;2.75;;;2.35;;
29006;SDS011;16104;48.642;9.008;2023-08-30T19:37:11;2.95;;;2.50;;
29006;SDS011;16104;48.642;9.008;2023-08-30T19:42:07;3.67;;;2.05;;
29006;SDS011;16104;48.642;9.008;2023-08-30T19:47:02;3.95;;;2.17;;
29006;SDS011;16104;48.642;9.008;2023-08-30T19:51:58;2.50;;;2.20;;
29006;SDS011;16104;48.642;9.008;2023-08-30T19:56:54;3.03;;;2.20;;
29006;SDS011;16104;48.642;9.008;2023-08-30T20:01:49;4.53;;;2.08;;
29006;SDS011;16104;48.642;9.008;2023-08-30T20:06:45;3.40;;;2.20;;
29006;SDS011;16104;48.642;9.008;2023-08-30T20:11:41;3.05;;;2.35;;
29006;SDS011;16104;48.642;9.008;2023-08-30T20:16:36;2.70;;;2.20;;
29006;SDS011;16104;48.642;9.008;2023-08-30T20:21:32;3.28;;;2.47;;
29006;SDS011;16104;48.642;9.008;2023-08-30T20:26:28;2.95;;;2.33;;
29006;SDS011;16104;48.642;9.008;2023-08-30T20:31:23;3.15;;;2.28;;
29006;SDS011;16104;48.642;9.008;2023-08-30T20:36:19;3.85;;;2.20;;
29006;SDS011;16104;48.642;9.008;2023-08-30T20:41:14;4.70;;;2.42;;
29006;SDS011;16104;48.642;9.008;2023-08-30T20:46:10;2.90;;;2.28;;
29006;SDS011;16104;48.642;9.008;2023-08-30T20:51:05;3.28;;;2.28;;
29006;SDS011;16104;48.642;9.008;2023-08-30T20:56:01;2.53;;;2.15;;
29006;SDS011;16104;48.642;9.008;2023-08-30T21:00:58;2.90;;;2.15;;
29006;SDS011;16104;48.642;9.008;2023-08-30T21:05:55;2.45;;;1.90;;
29006;SDS011;16104;48.642;9.008;2023-08-30T21:10:50;2.75;;;1.98;;
29006;SDS011;16104;48.642;9.008;2023-08-30T21:15:46;3.85;;;2.00;;
29006;SDS011;16104;48.642;9.008;2023-08-30T21:20:41;2.10;;;1.85;;
29006;SDS011;16104;48.642;9.008;2023-08-30T21:25:38;3.17;;;1.90;;
29006;SDS011;16104;48.642;9.008;2023-08-30T21:30:38;3.25;;;2.22;;
29006;SDS011;16104;48.642;9.008;2023-08-30T21:35:36;2.85;;;2.10;;
29006;SDS011;16104;48.642;9.008;2023-08-30T21:40:33;3.75;;;1.73;;
29006;SDS011;16104;48.642;9.008;2023-08-30T21:45:28;5.10;;;2.10;;
29006;SDS011;16104;48.642;9.008;2023-08-30T21:50:24;5.97;;;2.28;;
29006;SDS011;16104;48.642;9.008;2023-08-30T21:55:20;4.05;;;1.92;;
29006;SDS011;16104;48.642;9.008;2023-08-30T22:00:16;2.33;;;1.90;;
29006;SDS011;16104;48.642;9.008;2023-08-30T22:05:12;3.33;;;1.70;;
29006;SDS011;16104;48.642;9.008;2023-08-30T22:10:09;2.97;;;1.95;;
29006;SDS011;16104;48.642;9.008;2023-08-30T22:15:08;4.63;;;2.13;;
29006;SDS011;16104;48.642;9.008;2023-08-30T22:20:09;2.03;;;1.70;;
29006;SDS011;16104;48.642;9.008;2023-08-30T22:25:06;2.85;;;1.90;;
29006;SDS011;16104;48.642;9.008;2023-08-30T22:30:04;2.00;;;1.80;;
29006;SDS011;16104;48.642;9.008;2023-08-30T22:35:00;2.80;;;1.40;;
29006;SDS011;16104;48.642;9.008;2023-08-30T22:39:58;2.10;;;1.23;;
29006;SDS011;16104;48.642;9.008;2023-08-30T22:44:54;2.25;;;1.42;;
29006;SDS011;16104;48.642;9.008;2023-08-30T22:49:50;1.77;;;1.40;;
29006;SDS011;16104;48.642;9.008;2023-08-30T22:54:47;2.35;;;1.50;;
29006;SDS011;16104;48.642;9.008;2023-08-30T22:59:42;5.15;;;1.70;;
29006;SDS011;16104;48.642;9.008;2023-08-30T23:04:38;3.17;;;1.52;;
29006;SDS011;16104;48.642;9.008;2023-08-30T23:09:33;2.92;;;1.65;;
29006;SDS011;16104;48.642;9.008;2023-08-30T23:14:29;5.68;;;1.52;;
29006;SDS011;16104;48.642;9.008;2023-08-30T23:19:24;2.58;;;1.40;;
29006;SDS011;16104;48.642;9.008;2023-08-30T23:24:20;1.35;;;1.25;;
29006;SDS011;16104;48.642;9.008;2023-08-30T23:29:15;3.00;;;1.30;;
29006;SDS011;16104;48.642;9.008;2023-08-30T23:34:11;1.38;;;1.10;;
29006;SDS011;16104;48.642;9.008;2023-08-30T23:39:06;2.10;;;1.23;;
29006;SDS011;16104;48.642;9.008;2023-08-30T23:44:04;4.63;;;1.48;;
29006;SDS011;16104;48.642;9.008;2023-08-30T23:49:00;2.13;;;1.13;;
29006;SDS011;16104;48.642;9.008;2023-08-30T23:53:55;2.28;;;1.30;;
29006;SDS011;16104;48.642;9.008;2023-08-30T23:58:51;4.90;;;1.77;;
